createdAt,value
2022-09-11T00:00:17.547Z,1.30
2022-09-11T00:03:04.935Z,1.08
2022-09-11T00:05:52.100Z,1.10
2022-09-11T00:08:43.453Z,0.90
2022-09-11T00:11:31.414Z,1.05
2022-09-11T00:14:19.110Z,0.93
2022-09-11T00:17:07.076Z,0.98
2022-09-11T00:19:54.180Z,1.23
2022-09-11T00:22:50.147Z,0.90
2022-09-11T00:25:40.645Z,1.00
2022-09-11T00:28:27.723Z,1.10
2022-09-11T00:31:16.081Z,0.90
2022-09-11T00:34:03.907Z,1.02
2022-09-11T00:36:52.264Z,0.82
2022-09-11T00:39:43.050Z,1.15
2022-09-11T00:42:31.673Z,1.10
2022-09-11T00:45:21.565Z,0.95
2022-09-11T00:48:10.953Z,1.05
2022-09-11T00:50:59.587Z,1.00
2022-09-11T00:53:47.082Z,0.95
2022-09-11T00:56:36.490Z,1.10
2022-09-11T00:59:26.986Z,1.02
2022-09-11T01:02:14.648Z,0.80
2022-09-11T01:05:02.370Z,1.38
2022-09-11T01:07:50.796Z,0.73
2022-09-11T01:10:40.463Z,0.80
2022-09-11T01:13:30.768Z,0.77
2022-09-11T01:16:25.377Z,1.08
2022-09-11T01:19:19.480Z,0.90
2022-09-11T01:22:11.510Z,1.13
2022-09-11T01:25:15.543Z,1.10
2022-09-11T01:28:06.857Z,0.90
2022-09-11T01:30:57.123Z,1.15
2022-09-11T01:33:47.855Z,1.00
2022-09-11T01:36:38.628Z,1.10
2022-09-11T01:39:32.013Z,1.00
2022-09-11T01:42:23.088Z,0.98
2022-09-11T01:45:17.091Z,0.98
2022-09-11T01:48:04.519Z,0.93
2022-09-11T01:50:53.291Z,0.80
2022-09-11T01:53:49.893Z,0.93
2022-09-11T01:56:40.899Z,0.95
2022-09-11T01:59:29.959Z,0.80
2022-09-11T02:02:20.940Z,0.88
2022-09-11T02:05:12.027Z,0.90
2022-09-11T02:08:01.656Z,0.93
2022-09-11T02:10:53.177Z,0.83
2022-09-11T02:13:42.989Z,0.80
2022-09-11T02:16:36.299Z,1.05
2022-09-11T02:19:26.193Z,0.70
2022-09-11T02:22:15.949Z,0.98
2022-09-11T02:25:02.978Z,1.15
2022-09-11T02:27:50.335Z,0.70
2022-09-11T02:30:39.882Z,1.27
2022-09-11T02:33:32.972Z,1.08
2022-09-11T02:36:36.637Z,1.00
2022-09-11T02:39:36.846Z,0.90
2022-09-11T02:42:34.122Z,0.98
2022-09-11T02:45:31.452Z,0.90
2022-09-11T02:48:27.838Z,0.88
2022-09-11T02:51:19.749Z,0.65
2022-09-11T02:54:09.622Z,0.77
2022-09-11T02:57:03.343Z,1.25
2022-09-11T02:59:54.965Z,1.00
2022-09-11T03:02:44.187Z,0.90
2022-09-11T03:05:31.440Z,0.98
2022-09-11T03:08:18.594Z,1.23
2022-09-11T03:11:05.932Z,0.90
2022-09-11T03:13:54.501Z,0.80
2022-09-11T03:16:43.815Z,0.95
2022-09-11T03:19:31.856Z,0.50
2022-09-11T03:22:20.839Z,0.82
2022-09-11T03:25:08.925Z,1.08
2022-09-11T03:27:55.643Z,0.73
2022-09-11T03:30:47.280Z,0.60
2022-09-11T03:33:35.089Z,0.60
2022-09-11T03:36:23.121Z,0.65
2022-09-11T03:39:10.441Z,0.73
2022-09-11T03:41:58.361Z,0.90
2022-09-11T03:44:45.659Z,0.57
2022-09-11T03:47:34.825Z,0.52
2022-09-11T03:50:22.407Z,0.60
2022-09-11T03:53:10.055Z,0.60
2022-09-11T03:55:57.253Z,0.98
2022-09-11T03:58:44.403Z,1.00
2022-09-11T04:01:31.424Z,0.57
2022-09-11T04:04:20.621Z,0.67
2022-09-11T04:07:10.625Z,0.57
2022-09-11T04:09:58.317Z,0.70
2022-09-11T04:12:45.728Z,0.32
2022-09-11T04:15:32.971Z,0.60
2022-09-11T04:18:20.042Z,0.55
2022-09-11T04:21:09.046Z,0.80
2022-09-11T04:24:00.293Z,0.73
2022-09-11T04:26:50.029Z,0.73
2022-09-11T04:29:47.697Z,0.75
2022-09-11T04:32:35.928Z,0.60
2022-09-11T04:35:22.962Z,0.43
2022-09-11T04:38:16.939Z,0.40
2022-09-11T04:41:04.522Z,0.50
2022-09-11T04:43:55.300Z,0.50
2022-09-11T04:46:42.911Z,0.60
2022-09-11T04:49:30.427Z,0.63
2022-09-11T04:52:18.916Z,0.55
2022-09-11T04:55:07.831Z,0.40
2022-09-11T04:57:55.201Z,0.82
2022-09-11T05:00:42.147Z,0.38
2022-09-11T05:03:29.889Z,0.60
2022-09-11T05:06:18.346Z,0.60
2022-09-11T05:09:08.091Z,0.80
2022-09-11T05:11:57.633Z,0.70
2022-09-11T05:14:48.739Z,0.75
2022-09-11T05:17:35.894Z,0.90
2022-09-11T05:20:24.866Z,0.70
2022-09-11T05:23:12.959Z,0.82
2022-09-11T05:26:00.147Z,0.55
2022-09-11T05:28:48.582Z,0.65
2022-09-11T05:31:37.129Z,1.00
2022-09-11T05:34:24.919Z,0.80
2022-09-11T05:37:12.163Z,0.45
2022-09-11T05:40:06.875Z,0.50
2022-09-11T05:42:54.648Z,0.75
2022-09-11T05:45:44.230Z,0.65
2022-09-11T05:48:32.975Z,0.50
2022-09-11T05:51:23.759Z,0.70
2022-09-11T05:54:10.885Z,0.40
2022-09-11T05:57:06.925Z,0.60
2022-09-11T05:59:56.386Z,0.40
2022-09-11T06:02:46.126Z,0.65
2022-09-11T06:05:33.306Z,0.55
2022-09-11T06:08:22.395Z,0.22
2022-09-11T06:11:09.577Z,0.67
2022-09-11T06:13:57.773Z,0.68
2022-09-11T06:16:44.900Z,0.40
2022-09-11T06:19:36.823Z,0.30
2022-09-11T06:22:25.491Z,0.40
2022-09-11T06:25:15.919Z,0.45
2022-09-11T06:28:02.880Z,0.70
2022-09-11T06:30:51.475Z,0.40
2022-09-11T06:33:41.514Z,0.55
2022-09-11T06:36:30.159Z,0.38
2022-09-11T06:39:20.233Z,0.43
2022-09-11T06:42:08.194Z,0.30
2022-09-11T06:44:57.618Z,0.40
2022-09-11T06:47:45.640Z,0.40
2022-09-11T06:50:40.888Z,0.40
2022-09-11T06:53:29.788Z,0.45
2022-09-11T06:56:18.114Z,0.50
2022-09-11T06:59:06.171Z,0.30
2022-09-11T07:01:54.783Z,0.38
2022-09-11T07:04:44.491Z,0.35
2022-09-11T07:07:33.365Z,0.20
2022-09-11T07:10:21.909Z,0.30
2022-09-11T07:13:18.060Z,0.40
2022-09-11T07:16:07.850Z,0.40
2022-09-11T07:18:58.256Z,0.45
2022-09-11T07:21:46.007Z,0.30
2022-09-11T07:24:37.337Z,0.40
2022-09-11T07:27:26.945Z,0.30
2022-09-11T07:30:16.794Z,0.40
2022-09-11T07:33:07.393Z,0.40
2022-09-11T07:35:55.556Z,0.38
2022-09-11T07:38:42.971Z,0.30
2022-09-11T07:41:33.760Z,0.40
2022-09-11T07:44:25.601Z,0.50
2022-09-11T07:47:12.850Z,0.30
2022-09-11T07:50:04.342Z,0.40
2022-09-11T07:52:52.575Z,0.50
2022-09-11T07:55:41.182Z,0.38
2022-09-11T07:58:28.349Z,0.38
2022-09-11T08:01:17.578Z,0.20
2022-09-11T08:04:06.488Z,0.30
2022-09-11T08:06:57.442Z,0.30
2022-09-11T08:10:04.369Z,0.20
2022-09-11T08:12:59.758Z,0.28
2022-09-11T08:15:51.463Z,0.40
2022-09-11T08:18:42.298Z,0.30
2022-09-11T08:21:29.732Z,0.28
2022-09-11T08:24:18.024Z,0.50
2022-09-11T08:27:06.959Z,0.30
2022-09-11T08:29:57.458Z,0.32
2022-09-11T08:32:45.595Z,0.35
2022-09-11T08:35:35.423Z,0.28
2022-09-11T08:38:24.920Z,0.20
2022-09-11T08:41:13.425Z,0.50
2022-09-11T08:44:02.539Z,0.30
2022-09-11T08:46:50.872Z,0.30
2022-09-11T08:49:40.041Z,0.30
2022-09-11T08:52:29.529Z,0.22
2022-09-11T08:55:18.385Z,0.40
2022-09-11T08:58:09.003Z,0.30
2022-09-11T09:01:03.993Z,0.30
2022-09-11T09:03:56.667Z,0.30
2022-09-11T09:06:52.689Z,0.30
2022-09-11T09:09:44.657Z,0.40
2022-09-11T09:12:41.435Z,0.20
2022-09-11T09:15:39.433Z,0.20
2022-09-11T09:18:29.716Z,0.20
2022-09-11T09:21:24.538Z,0.30
2022-09-11T09:24:19.266Z,0.28
2022-09-11T09:27:12.661Z,0.30
2022-09-11T09:30:00.734Z,0.17
2022-09-11T09:32:50.873Z,0.20
2022-09-11T09:35:41.335Z,0.30
2022-09-11T09:38:31.797Z,0.30
2022-09-11T09:41:34.493Z,0.20
2022-09-11T09:44:32.823Z,0.10
2022-09-11T09:47:20.018Z,0.20
2022-09-11T09:50:07.430Z,0.20
2022-09-11T09:52:56.152Z,0.30
2022-09-11T09:55:48.099Z,0.22
2022-09-11T09:58:38.427Z,0.30
2022-09-11T10:01:45.848Z,0.30
2022-09-11T10:04:32.723Z,0.20
2022-09-11T10:07:24.364Z,0.30
2022-09-11T10:10:22.335Z,0.30
2022-09-11T10:13:24.921Z,0.50
2022-09-11T10:16:21.194Z,0.50
2022-09-11T10:19:27.574Z,0.32
2022-09-11T10:22:25.238Z,0.38
2022-09-11T10:25:16.252Z,0.30
2022-09-11T10:28:05.827Z,0.10
2022-09-11T10:31:00.152Z,0.38
2022-09-11T10:33:49.591Z,0.30
2022-09-11T10:36:40.595Z,0.30
2022-09-11T10:39:28.615Z,0.40
2022-09-11T10:42:18.346Z,0.45
2022-09-11T10:45:10.648Z,0.20
2022-09-11T10:47:57.445Z,0.20
2022-09-11T10:50:44.967Z,0.63
2022-09-11T10:53:35.884Z,0.50
2022-09-11T10:56:24.309Z,0.22
2022-09-11T10:59:15.282Z,0.30
2022-09-11T11:02:03.231Z,0.60
2022-09-11T11:04:51.109Z,0.40
2022-09-11T11:08:02.726Z,0.57
2022-09-11T11:10:59.079Z,0.30
2022-09-11T11:14:00.148Z,0.30
2022-09-11T11:16:52.337Z,0.40
2022-09-11T11:19:46.750Z,0.30
2022-09-11T11:22:45.314Z,0.30
2022-09-11T11:25:36.513Z,0.90
2022-09-11T11:28:32.722Z,0.40
2022-09-11T11:31:27.933Z,0.70
2022-09-11T11:34:22.168Z,0.30
2022-09-11T11:37:21.308Z,0.40
2022-09-11T11:40:20.315Z,0.45
2022-09-11T11:43:10.121Z,0.10
2022-09-11T11:46:15.780Z,0.30
2022-09-11T11:49:24.136Z,0.30
2022-09-11T11:52:17.405Z,0.20
2022-09-11T11:55:16.937Z,0.30
2022-09-11T11:58:09.930Z,0.30
2022-09-11T12:00:59.927Z,0.20
2022-09-11T12:03:50.499Z,0.43
2022-09-11T12:06:37.548Z,0.50
2022-09-11T12:09:32.968Z,0.60
2022-09-11T12:12:21.406Z,0.40
2022-09-11T12:15:10.024Z,0.30
2022-09-11T12:18:02.228Z,0.43
2022-09-11T12:20:50.748Z,0.40
2022-09-11T12:24:02.847Z,1.40
2022-09-11T12:26:50.005Z,0.47
2022-09-11T12:29:45.750Z,0.40
2022-09-11T12:32:44.637Z,0.52
2022-09-11T12:35:39.045Z,0.52
2022-09-11T12:38:39.637Z,0.57
2022-09-11T12:41:30.181Z,0.50
2022-09-11T12:44:33.986Z,0.50
2022-09-11T12:47:23.361Z,0.70
2022-09-11T12:50:20.427Z,0.52
2022-09-11T12:53:08.991Z,0.70
2022-09-11T12:56:02.073Z,0.50
2022-09-11T12:58:53.554Z,0.70
2022-09-11T13:01:43.726Z,0.70
2022-09-11T13:04:32.304Z,0.55
2022-09-11T13:07:26.703Z,0.20
2022-09-11T13:10:26.530Z,0.38
2022-09-11T13:13:28.762Z,0.38
2022-09-11T13:16:20.900Z,0.35
2022-09-11T13:19:13.596Z,0.65
2022-09-11T13:22:00.714Z,0.40
2022-09-11T13:24:48.335Z,0.30
2022-09-11T13:27:37.538Z,0.50
2022-09-11T13:30:25.721Z,0.40
2022-09-11T13:33:20.516Z,0.50
2022-09-11T13:36:08.850Z,0.40
2022-09-11T13:39:04.127Z,0.35
2022-09-11T13:41:54.928Z,0.50
2022-09-11T13:44:43.808Z,0.30
2022-09-11T13:47:42.382Z,0.32
2022-09-11T13:50:33.122Z,0.30
2022-09-11T13:53:29.752Z,0.60
2022-09-11T13:56:48.325Z,0.40
2022-09-11T13:59:42.267Z,0.52
2022-09-11T14:02:32.270Z,0.63
2022-09-11T14:05:23.241Z,0.30
2022-09-11T14:08:24.505Z,0.40
2022-09-11T14:11:15.385Z,0.30
2022-09-11T14:14:07.461Z,0.50
2022-09-11T14:16:55.922Z,0.40
2022-09-11T14:19:44.324Z,0.22
2022-09-11T14:22:32.630Z,0.30
2022-09-11T14:25:22.598Z,0.35
2022-09-11T14:28:35.617Z,0.40
2022-09-11T14:31:30.434Z,0.50
2022-09-11T14:34:27.299Z,0.30
2022-09-11T14:37:18.421Z,0.50
2022-09-11T14:40:09.460Z,0.40
2022-09-11T14:43:49.709Z,0.70
2022-09-11T14:46:45.256Z,0.30
2022-09-11T14:49:37.677Z,0.33
2022-09-11T14:53:09.538Z,0.40
2022-09-11T14:56:02.873Z,0.57
2022-09-11T14:59:00.447Z,0.70
2022-09-11T15:01:52.170Z,0.52
2022-09-11T15:04:41.963Z,0.50
2022-09-11T15:07:29.123Z,0.47
2022-09-11T15:10:16.697Z,0.38
2022-09-11T15:13:04.279Z,0.40
2022-09-11T15:15:52.198Z,0.50
2022-09-11T15:18:42.020Z,0.40
2022-09-11T15:21:32.047Z,0.52
2022-09-11T15:24:22.237Z,0.47
2022-09-11T15:27:10.333Z,0.90
2022-09-11T15:29:57.084Z,0.60
2022-09-11T15:32:44.803Z,0.80
2022-09-11T15:35:33.286Z,0.50
2022-09-11T15:38:20.738Z,0.50
2022-09-11T15:41:10.012Z,0.50
2022-09-11T15:43:57.577Z,0.45
2022-09-11T15:46:45.687Z,0.60
2022-09-11T15:49:33.041Z,0.50
2022-09-11T15:52:21.464Z,0.60
2022-09-11T15:55:09.982Z,0.50
2022-09-11T15:57:58.079Z,0.40
2022-09-11T16:00:46.826Z,0.50
2022-09-11T16:03:34.434Z,0.77
2022-09-11T16:06:22.140Z,0.50
2022-09-11T16:09:12.639Z,0.47
2022-09-11T16:12:00.240Z,0.60
2022-09-11T16:14:48.165Z,0.57
2022-09-11T16:17:35.423Z,0.40
2022-09-11T16:20:22.494Z,0.40
2022-09-11T16:23:11.798Z,0.70
2022-09-11T16:26:03.518Z,0.50
2022-09-11T16:28:51.147Z,0.43
2022-09-11T16:31:38.313Z,0.47
2022-09-11T16:34:25.296Z,0.53
2022-09-11T16:37:12.329Z,0.38
2022-09-11T16:39:59.492Z,0.40
2022-09-11T16:42:47.858Z,0.50
2022-09-11T16:45:37.094Z,0.60
2022-09-11T16:48:25.529Z,0.40
2022-09-11T16:51:13.024Z,0.38
2022-09-11T16:54:00.340Z,0.50
2022-09-11T16:56:47.258Z,0.30
2022-09-11T16:59:35.957Z,0.40
2022-09-11T17:02:22.985Z,0.50
2022-09-11T17:05:10.539Z,0.40
2022-09-11T17:07:57.461Z,0.40
2022-09-11T17:10:45.315Z,0.40
2022-09-11T17:13:32.230Z,0.43
2022-09-11T17:16:22.078Z,0.30
2022-09-11T17:19:10.430Z,0.40
2022-09-11T17:21:57.246Z,0.60
2022-09-11T17:24:44.157Z,0.28
2022-09-11T17:27:31.111Z,0.40
2022-09-11T17:30:18.845Z,0.60
2022-09-11T17:33:07.422Z,0.40
2022-09-11T17:35:54.510Z,0.38
2022-09-11T17:38:41.787Z,0.60
2022-09-11T17:41:29.041Z,0.40
2022-09-11T17:44:17.799Z,0.30
2022-09-11T17:47:04.935Z,0.50
2022-09-11T17:49:54.946Z,0.60
2022-09-11T17:52:42.028Z,0.30
2022-09-11T17:55:31.885Z,0.40
2022-09-11T17:58:18.544Z,0.50
2022-09-11T18:01:06.203Z,0.40
2022-09-11T18:03:56.597Z,0.50
2022-09-11T18:06:45.263Z,0.30
2022-09-11T18:09:32.090Z,0.30
2022-09-11T18:12:19.037Z,0.40
2022-09-11T18:15:06.403Z,0.50
2022-09-11T18:17:54.049Z,0.40
2022-09-11T18:20:40.869Z,0.30
2022-09-11T18:23:29.763Z,0.30
2022-09-11T18:26:22.033Z,0.38
2022-09-11T18:29:10.418Z,0.45
2022-09-11T18:31:57.349Z,0.43
2022-09-11T18:34:44.585Z,0.38
2022-09-11T18:37:32.397Z,0.50
2022-09-11T18:40:20.852Z,0.40
2022-09-11T18:43:08.755Z,0.40
2022-09-11T18:45:55.974Z,0.20
2022-09-11T18:48:44.310Z,0.35
2022-09-11T18:51:31.644Z,0.30
2022-09-11T18:54:20.627Z,0.30
2022-09-11T18:57:08.977Z,0.40
2022-09-11T18:59:56.010Z,0.50
2022-09-11T19:02:43.081Z,0.45
2022-09-11T19:05:31.144Z,0.45
2022-09-11T19:08:19.281Z,0.50
2022-09-11T19:11:09.276Z,0.50
2022-09-11T19:14:00.290Z,0.65
2022-09-11T19:16:48.198Z,0.40
2022-09-11T19:19:35.312Z,0.40
2022-09-11T19:22:24.917Z,0.60
2022-09-11T19:25:12.024Z,0.40
2022-09-11T19:28:00.309Z,0.60
2022-09-11T19:30:58.367Z,0.60
2022-09-11T19:33:45.643Z,0.40
2022-09-11T19:36:33.716Z,0.40
2022-09-11T19:39:21.781Z,0.53
2022-09-11T19:42:11.415Z,0.47
2022-09-11T19:44:58.136Z,0.43
2022-09-11T19:47:47.326Z,0.50
2022-09-11T19:50:35.752Z,0.60
2022-09-11T19:53:24.200Z,0.80
2022-09-11T19:56:11.551Z,0.52
2022-09-11T19:58:59.818Z,1.10
2022-09-11T20:01:47.244Z,0.75
2022-09-11T20:04:35.761Z,0.95
2022-09-11T20:07:22.993Z,0.53
2022-09-11T20:10:10.693Z,0.63
2022-09-11T20:13:00.402Z,0.70
2022-09-11T20:15:48.005Z,0.80
2022-09-11T20:18:35.191Z,0.60
2022-09-11T20:21:24.037Z,0.93
2022-09-11T20:24:11.252Z,0.68
2022-09-11T20:27:00.480Z,0.60
2022-09-11T20:29:48.135Z,0.67
2022-09-11T20:32:38.745Z,0.73
2022-09-11T20:35:25.813Z,0.82
2022-09-11T20:38:17.062Z,0.60
2022-09-11T20:41:06.147Z,0.73
2022-09-11T20:43:57.406Z,0.60
2022-09-11T20:46:47.502Z,0.60
2022-09-11T20:49:34.921Z,0.80
2022-09-11T20:52:21.914Z,0.80
2022-09-11T20:55:10.912Z,0.47
2022-09-11T20:58:00.571Z,0.40
2022-09-11T21:00:47.976Z,0.60
2022-09-11T21:03:35.386Z,0.43
2022-09-11T21:06:25.892Z,0.80
2022-09-11T21:09:26.880Z,0.65
2022-09-11T21:12:35.796Z,0.55
2022-09-11T21:15:24.510Z,0.50
2022-09-11T21:18:15.954Z,0.52
2022-09-11T21:21:03.620Z,0.88
2022-09-11T21:23:51.273Z,0.50
2022-09-11T21:26:38.622Z,0.40
2022-09-11T21:29:27.426Z,0.40
2022-09-11T21:32:16.289Z,0.50
2022-09-11T21:35:03.718Z,0.70
2022-09-11T21:37:58.644Z,0.70
2022-09-11T21:40:49.711Z,0.40
2022-09-11T21:43:36.874Z,0.60
2022-09-11T21:46:25.778Z,0.57
2022-09-11T21:49:13.129Z,0.30
2022-09-11T21:52:00.131Z,0.52
2022-09-11T21:54:49.196Z,0.40
2022-09-11T21:57:36.392Z,0.60
2022-09-11T22:00:23.454Z,1.05
2022-09-11T22:03:12.263Z,0.55
2022-09-11T22:07:01.051Z,0.70
2022-09-11T22:09:49.220Z,0.65
2022-09-11T22:12:36.389Z,0.90
2022-09-11T22:15:23.348Z,0.50
2022-09-11T22:18:10.460Z,0.60
2022-09-11T22:21:01.133Z,0.50
2022-09-11T22:23:49.851Z,0.60
2022-09-11T22:26:36.668Z,0.60
2022-09-11T22:29:23.678Z,0.73
2022-09-11T22:32:10.594Z,1.10
2022-09-11T22:34:57.511Z,0.80
2022-09-11T22:37:44.507Z,0.63
2022-09-11T22:40:32.802Z,0.40
2022-09-11T22:43:19.639Z,0.50
2022-09-11T22:46:06.989Z,0.68
2022-09-11T22:48:54.284Z,0.60
2022-09-11T22:51:41.430Z,0.85
2022-09-11T22:54:28.732Z,0.50
2022-09-11T22:57:17.333Z,0.75
2022-09-11T23:00:06.562Z,0.70
2022-09-11T23:02:53.684Z,0.73
2022-09-11T23:05:58.503Z,0.68
2022-09-11T23:08:46.997Z,0.73
2022-09-11T23:11:34.307Z,0.60
2022-09-11T23:14:22.742Z,0.60
2022-09-11T23:17:09.750Z,0.87
2022-09-11T23:19:56.752Z,0.82
2022-09-11T23:22:46.956Z,0.90
2022-09-11T23:25:34.201Z,0.65
2022-09-11T23:28:21.178Z,0.77
2022-09-11T23:31:13.340Z,0.90
2022-09-11T23:34:01.445Z,0.73
2022-09-11T23:36:48.380Z,0.77
2022-09-11T23:39:35.542Z,0.65
2022-09-11T23:42:23.557Z,1.30
2022-09-11T23:45:12.726Z,0.60
2022-09-11T23:48:01.373Z,0.60
2022-09-11T23:50:48.144Z,0.52
2022-09-11T23:53:35.061Z,0.73
2022-09-11T23:56:22.844Z,0.30
2022-09-11T23:59:09.660Z,0.65
